CPA596 VHHH-RJBB
Flight info
| Callsign | CPA596 |
|---|---|
| Flight time | 2h 57m |
| Altitude | 39000 |
| Route | N0490F390 DALOL V631 ENVAR M750 MADOG Y53 NIXOV |
| Aircraft | A35K/H-SDE2E3GHIJ1J3J4J5LM1ORWXYZ/LB1D1 |
Departure
| Time | 2026-05-08 00:44 |
|---|---|
| Airport | Hong Kong International Airport (VHHH) |
Arrival
| Time | 2026-05-08 03:41 |
|---|---|
| Airport | Kansai International Airport (RJBB) |
| Time | Latitude | Longitude | Altitude | Speed | Heading |
|---|---|---|---|---|---|
| 2026-05-08 00:16 | 22.31373 | 113.92411 | 38 ft | 0 kts | 26° |
| 2026-05-08 00:30 | 22.31370 | 113.92409 | 38 ft | 3 kts | 25° |
| 2026-05-08 00:30 | 22.31345 | 113.92400 | 37 ft | 4 kts | 7° |
| 2026-05-08 00:30 | 22.31319 | 113.92398 | 37 ft | 2 kts | 5° |
| 2026-05-08 00:31 | 22.31317 | 113.92398 | 35 ft | 0 kts | 6° |
| 2026-05-08 00:33 | 22.31326 | 113.92394 | 37 ft | 4 kts | 333° |
| 2026-05-08 00:34 | 22.31329 | 113.92340 | 38 ft | 10 kts | 270° |
| 2026-05-08 00:34 | 22.31353 | 113.92263 | 38 ft | 12 kts | 292° |
| 2026-05-08 00:34 | 22.31392 | 113.92173 | 38 ft | 15 kts | 296° |
| 2026-05-08 00:34 | 22.31449 | 113.92083 | 38 ft | 13 kts | 334° |
| 2026-05-08 00:35 | 22.31540 | 113.92051 | 38 ft | 15 kts | 342° |
| 2026-05-08 00:35 | 22.31610 | 113.91985 | 38 ft | 14 kts | 265° |
| 2026-05-08 00:35 | 22.31578 | 113.91876 | 38 ft | 16 kts | 251° |
| 2026-05-08 00:35 | 22.31537 | 113.91751 | 38 ft | 19 kts | 250° |
| 2026-05-08 00:36 | 22.31494 | 113.91613 | 38 ft | 21 kts | 252° |
| 2026-05-08 00:36 | 22.31444 | 113.91460 | 38 ft | 23 kts | 250° |
| 2026-05-08 00:36 | 22.31390 | 113.91293 | 38 ft | 24 kts | 251° |
| 2026-05-08 00:36 | 22.31333 | 113.91114 | 38 ft | 26 kts | 250° |
| 2026-05-08 00:37 | 22.31272 | 113.90928 | 38 ft | 21 kts | 250° |
| 2026-05-08 00:37 | 22.31247 | 113.90852 | 38 ft | 11 kts | 251° |
| 2026-05-08 00:37 | 22.31220 | 113.90767 | 38 ft | 13 kts | 250° |
| 2026-05-08 00:38 | 22.31147 | 113.90543 | 38 ft | 18 kts | 250° |
| 2026-05-08 00:38 | 22.31104 | 113.90405 | 38 ft | 20 kts | 252° |
| 2026-05-08 00:38 | 22.31055 | 113.90256 | 38 ft | 22 kts | 249° |
| 2026-05-08 00:38 | 22.31004 | 113.90097 | 38 ft | 18 kts | 250° |
| 2026-05-08 00:39 | 22.30965 | 113.89966 | 38 ft | 19 kts | 255° |
| 2026-05-08 00:39 | 22.30907 | 113.89841 | 38 ft | 15 kts | 215° |
| 2026-05-08 00:39 | 22.30848 | 113.89752 | 38 ft | 13 kts | 265° |
| 2026-05-08 00:39 | 22.30854 | 113.89647 | 38 ft | 15 kts | 271° |
| 2026-05-08 00:40 | 22.30845 | 113.89527 | 38 ft | 17 kts | 262° |
| 2026-05-08 00:40 | 22.30844 | 113.89430 | 38 ft | 0 kts | 292° |
| 2026-05-08 00:43 | 22.30872 | 113.89403 | 35 ft | 11 kts | 325° |
| 2026-05-08 00:43 | 22.30962 | 113.89419 | 35 ft | 11 kts | 56° |
| 2026-05-08 00:43 | 22.30984 | 113.89472 | 35 ft | 13 kts | 70° |
| 2026-05-08 00:44 | 22.31066 | 113.89721 | 36 ft | 65 kts | 71° |
| 2026-05-08 00:44 | 22.31294 | 113.90432 | 37 ft | 133 kts | 71° |
| 2026-05-08 00:44 | 22.31664 | 113.91573 | 111 ft | 181 kts | 71° |
| 2026-05-08 00:44 | 22.32051 | 113.92803 | 1002 ft | 172 kts | 70° |
| 2026-05-08 00:45 | 22.32466 | 113.94094 | 1477 ft | 196 kts | 70° |
| 2026-05-08 00:45 | 22.32940 | 113.95546 | 1863 ft | 215 kts | 70° |
| 2026-05-08 00:45 | 22.33382 | 113.97110 | 2497 ft | 220 kts | 76° |
| 2026-05-08 00:45 | 22.33684 | 113.98754 | 3181 ft | 224 kts | 79° |
| 2026-05-08 00:46 | 22.33955 | 114.00428 | 3828 ft | 227 kts | 80° |
| 2026-05-08 00:46 | 22.34225 | 114.02119 | 4464 ft | 229 kts | 80° |
| 2026-05-08 00:46 | 22.34354 | 114.03826 | 5087 ft | 232 kts | 92° |
| 2026-05-08 00:46 | 22.33998 | 114.05528 | 5722 ft | 234 kts | 113° |
| 2026-05-08 00:47 | 22.33088 | 114.06987 | 6355 ft | 236 kts | 135° |
| 2026-05-08 00:47 | 22.31744 | 114.08069 | 6807 ft | 248 kts | 153° |
| 2026-05-08 00:47 | 22.30095 | 114.08685 | 7250 ft | 260 kts | 172° |
| 2026-05-08 00:47 | 22.28276 | 114.08809 | 7961 ft | 265 kts | 182° |
| 2026-05-08 00:48 | 22.26372 | 114.08772 | 8485 ft | 281 kts | 183° |
| 2026-05-08 00:48 | 22.24389 | 114.08723 | 9226 ft | 288 kts | 182° |
| 2026-05-08 00:48 | 22.22370 | 114.08686 | 10047 ft | 291 kts | 182° |
| 2026-05-08 00:48 | 22.20288 | 114.08657 | 10531 ft | 308 kts | 182° |
| 2026-05-08 00:49 | 22.18068 | 114.08867 | 10790 ft | 332 kts | 168° |
| 2026-05-08 00:49 | 22.15947 | 114.09959 | 11028 ft | 355 kts | 143° |
| 2026-05-08 00:49 | 22.14290 | 114.12024 | 11267 ft | 375 kts | 121° |
| 2026-05-08 00:49 | 22.13069 | 114.14570 | 11632 ft | 387 kts | 116° |
| 2026-05-08 00:50 | 22.11882 | 114.17219 | 12143 ft | 394 kts | 117° |
| 2026-05-08 00:50 | 22.10664 | 114.19885 | 12695 ft | 399 kts | 117° |
| 2026-05-08 00:50 | 22.09413 | 114.22574 | 13261 ft | 403 kts | 117° |
| 2026-05-08 00:50 | 22.08061 | 114.25201 | 13803 ft | 407 kts | 126° |
| 2026-05-08 00:51 | 22.06135 | 114.27444 | 14285 ft | 407 kts | 142° |
| 2026-05-08 00:51 | 22.03875 | 114.29305 | 14801 ft | 410 kts | 146° |
| 2026-05-08 00:51 | 22.01551 | 114.31116 | 15295 ft | 413 kts | 146° |
| 2026-05-08 00:51 | 21.99237 | 114.32918 | 15789 ft | 417 kts | 146° |
| 2026-05-08 00:52 | 21.96876 | 114.34765 | 16274 ft | 420 kts | 146° |
| 2026-05-08 00:52 | 21.94497 | 114.36636 | 16771 ft | 423 kts | 145° |
| 2026-05-08 00:52 | 21.92129 | 114.38498 | 17256 ft | 427 kts | 146° |
| 2026-05-08 00:52 | 21.89705 | 114.40402 | 17711 ft | 431 kts | 146° |
| 2026-05-08 00:53 | 21.87322 | 114.42383 | 18174 ft | 436 kts | 140° |
| 2026-05-08 00:53 | 21.85291 | 114.44828 | 18580 ft | 441 kts | 125° |
| 2026-05-08 00:53 | 21.83900 | 114.47780 | 18988 ft | 444 kts | 109° |
| 2026-05-08 00:53 | 21.82998 | 114.50968 | 19415 ft | 447 kts | 105° |
| 2026-05-08 00:54 | 21.82193 | 114.54168 | 19830 ft | 449 kts | 105° |
| 2026-05-08 00:54 | 21.81372 | 114.57432 | 20244 ft | 452 kts | 105° |
| 2026-05-08 00:54 | 21.80538 | 114.60710 | 20668 ft | 454 kts | 105° |
| 2026-05-08 00:54 | 21.79694 | 114.63997 | 21102 ft | 456 kts | 105° |
| 2026-05-08 00:55 | 21.78845 | 114.67290 | 21572 ft | 457 kts | 105° |
| 2026-05-08 00:55 | 21.77987 | 114.70608 | 22005 ft | 460 kts | 105° |
| 2026-05-08 00:55 | 21.77136 | 114.73894 | 22429 ft | 463 kts | 105° |
| 2026-05-08 00:55 | 21.76266 | 114.77247 | 22872 ft | 465 kts | 105° |
| 2026-05-08 00:56 | 21.75390 | 114.80607 | 23304 ft | 468 kts | 105° |
| 2026-05-08 00:56 | 21.74632 | 114.84022 | 23693 ft | 470 kts | 98° |
| 2026-05-08 00:56 | 21.74317 | 114.87532 | 24045 ft | 472 kts | 92° |
| 2026-05-08 00:56 | 21.74222 | 114.91029 | 24393 ft | 474 kts | 90° |
| 2026-05-08 00:57 | 21.74223 | 114.94582 | 24767 ft | 476 kts | 89° |
| 2026-05-08 00:57 | 21.74261 | 114.98162 | 25153 ft | 479 kts | 88° |
| 2026-05-08 00:57 | 21.74304 | 115.01775 | 25520 ft | 483 kts | 88° |
| 2026-05-08 00:57 | 21.74335 | 115.05357 | 25918 ft | 486 kts | 89° |
| 2026-05-08 00:58 | 21.74353 | 115.09002 | 26370 ft | 488 kts | 89° |
| 2026-05-08 00:58 | 21.74359 | 115.12664 | 26820 ft | 491 kts | 89° |
| 2026-05-08 00:58 | 21.74358 | 115.16370 | 27271 ft | 494 kts | 89° |
| 2026-05-08 00:58 | 21.74353 | 115.20091 | 27719 ft | 497 kts | 89° |
| 2026-05-08 00:59 | 21.74347 | 115.23777 | 28149 ft | 500 kts | 89° |
| 2026-05-08 00:59 | 21.74341 | 115.27530 | 28575 ft | 503 kts | 89° |
| 2026-05-08 00:59 | 21.74331 | 115.31311 | 28969 ft | 506 kts | 89° |
| 2026-05-08 00:59 | 21.74320 | 115.35123 | 29369 ft | 509 kts | 89° |
| 2026-05-08 01:00 | 21.74309 | 115.38956 | 29721 ft | 513 kts | 89° |
| 2026-05-08 01:00 | 21.74297 | 115.42768 | 30064 ft | 516 kts | 89° |
| 2026-05-08 01:00 | 21.74285 | 115.46643 | 30369 ft | 518 kts | 89° |
| 2026-05-08 01:00 | 21.74273 | 115.50528 | 30670 ft | 521 kts | 89° |
| 2026-05-08 01:01 | 21.74260 | 115.54438 | 30959 ft | 523 kts | 89° |
| 2026-05-08 01:01 | 21.74246 | 115.58365 | 31325 ft | 523 kts | 89° |
| 2026-05-08 01:01 | 21.74228 | 115.62277 | 31768 ft | 522 kts | 89° |
| 2026-05-08 01:01 | 21.74212 | 115.66130 | 32175 ft | 521 kts | 89° |
| 2026-05-08 01:02 | 21.74197 | 115.70036 | 32512 ft | 522 kts | 88° |
| 2026-05-08 01:02 | 21.74182 | 115.73956 | 32900 ft | 522 kts | 88° |
| 2026-05-08 01:02 | 21.74166 | 115.77864 | 33316 ft | 521 kts | 88° |
| 2026-05-08 01:02 | 21.74148 | 115.81767 | 33707 ft | 520 kts | 88° |
| 2026-05-08 01:03 | 21.74130 | 115.85612 | 34073 ft | 520 kts | 88° |
| 2026-05-08 01:03 | 21.74111 | 115.89500 | 34389 ft | 519 kts | 88° |
| 2026-05-08 01:03 | 21.74090 | 115.93396 | 34718 ft | 519 kts | 88° |
| 2026-05-08 01:03 | 21.74067 | 115.97278 | 35041 ft | 518 kts | 87° |
| 2026-05-08 01:04 | 21.74044 | 116.01118 | 35342 ft | 518 kts | 87° |
| 2026-05-08 01:04 | 21.74021 | 116.05002 | 35639 ft | 518 kts | 87° |
| 2026-05-08 01:04 | 21.73997 | 116.08874 | 35957 ft | 517 kts | 87° |
| 2026-05-08 01:04 | 21.73972 | 116.12748 | 36265 ft | 516 kts | 87° |
| 2026-05-08 01:05 | 21.73946 | 116.16605 | 36560 ft | 515 kts | 87° |
| 2026-05-08 01:05 | 21.73919 | 116.20409 | 36846 ft | 515 kts | 87° |
| 2026-05-08 01:05 | 21.73891 | 116.24263 | 37129 ft | 514 kts | 87° |
| 2026-05-08 01:05 | 21.73863 | 116.28114 | 37389 ft | 514 kts | 87° |
| 2026-05-08 01:06 | 21.73834 | 116.31963 | 37601 ft | 515 kts | 88° |
| 2026-05-08 01:06 | 21.73804 | 116.35806 | 37844 ft | 514 kts | 88° |
| 2026-05-08 01:06 | 21.73772 | 116.39661 | 38108 ft | 514 kts | 88° |
| 2026-05-08 01:06 | 21.73740 | 116.43504 | 38364 ft | 513 kts | 88° |
| 2026-05-08 01:07 | 21.73706 | 116.47353 | 38586 ft | 513 kts | 88° |
| 2026-05-08 01:07 | 21.73672 | 116.51189 | 38798 ft | 512 kts | 88° |
| 2026-05-08 01:07 | 21.73638 | 116.54969 | 38956 ft | 512 kts | 88° |
| 2026-05-08 01:08 | 21.73566 | 116.62682 | 38995 ft | 517 kts | 88° |
| 2026-05-08 01:08 | 21.73490 | 116.70418 | 38994 ft | 519 kts | 88° |
| 2026-05-08 01:09 | 21.73832 | 116.78154 | 38991 ft | 514 kts | 76° |
| 2026-05-08 01:09 | 21.75892 | 116.85479 | 38991 ft | 513 kts | 66° |
| 2026-05-08 01:10 | 21.78464 | 116.92660 | 38992 ft | 515 kts | 64° |
| 2026-05-08 01:10 | 21.81113 | 116.99848 | 38991 ft | 515 kts | 64° |
| 2026-05-08 01:11 | 21.83682 | 117.06884 | 38990 ft | 515 kts | 65° |
| 2026-05-08 01:11 | 21.86280 | 117.14070 | 38994 ft | 515 kts | 65° |
| 2026-05-08 01:12 | 21.88858 | 117.21235 | 38993 ft | 515 kts | 65° |
| 2026-05-08 01:12 | 21.91448 | 117.28445 | 38993 ft | 514 kts | 65° |
| 2026-05-08 01:13 | 21.94028 | 117.35633 | 38996 ft | 515 kts | 65° |
| 2026-05-08 01:13 | 21.96603 | 117.42813 | 38993 ft | 517 kts | 65° |
| 2026-05-08 01:14 | 21.99346 | 117.49985 | 38994 ft | 513 kts | 57° |
| 2026-05-08 01:14 | 22.02901 | 117.56625 | 38996 ft | 510 kts | 54° |
| 2026-05-08 01:15 | 22.06579 | 117.63106 | 38995 ft | 509 kts | 53° |
| 2026-05-08 01:15 | 22.10299 | 117.69611 | 38996 ft | 509 kts | 54° |
| 2026-05-08 01:16 | 22.14005 | 117.76127 | 38996 ft | 509 kts | 54° |
| 2026-05-08 01:16 | 22.17683 | 117.82621 | 38996 ft | 509 kts | 54° |
| 2026-05-08 01:17 | 22.21375 | 117.89156 | 38996 ft | 509 kts | 54° |
| 2026-05-08 01:17 | 22.25041 | 117.95654 | 38996 ft | 508 kts | 54° |
| 2026-05-08 01:18 | 22.28731 | 118.02189 | 39001 ft | 508 kts | 54° |
| 2026-05-08 01:18 | 22.32476 | 118.08629 | 39002 ft | 507 kts | 53° |
| 2026-05-08 01:19 | 22.36260 | 118.15068 | 39000 ft | 506 kts | 53° |
| 2026-05-08 01:19 | 22.40032 | 118.21517 | 39001 ft | 507 kts | 53° |
| 2026-05-08 01:20 | 22.43735 | 118.27979 | 39001 ft | 508 kts | 54° |
| 2026-05-08 01:20 | 22.47415 | 118.34508 | 38998 ft | 509 kts | 54° |
| 2026-05-08 01:21 | 22.51106 | 118.41061 | 38995 ft | 508 kts | 54° |
| 2026-05-08 01:21 | 22.54765 | 118.47544 | 38999 ft | 507 kts | 54° |
| 2026-05-08 01:22 | 22.58451 | 118.54073 | 39000 ft | 507 kts | 54° |
| 2026-05-08 01:22 | 22.62165 | 118.60591 | 38999 ft | 507 kts | 54° |
| 2026-05-08 01:23 | 22.65860 | 118.67060 | 38997 ft | 507 kts | 54° |
| 2026-05-08 01:23 | 22.69570 | 118.73577 | 38999 ft | 506 kts | 54° |
| 2026-05-08 01:24 | 22.73244 | 118.80047 | 39001 ft | 506 kts | 54° |
| 2026-05-08 01:24 | 22.76933 | 118.86553 | 39001 ft | 506 kts | 54° |
| 2026-05-08 01:25 | 22.80597 | 118.93024 | 39002 ft | 507 kts | 54° |
| 2026-05-08 01:25 | 22.84287 | 118.99545 | 38998 ft | 508 kts | 54° |
| 2026-05-08 01:26 | 22.87966 | 119.06059 | 39004 ft | 507 kts | 54° |
| 2026-05-08 01:26 | 22.91655 | 119.12598 | 39004 ft | 507 kts | 54° |
| 2026-05-08 01:27 | 22.95340 | 119.19140 | 39004 ft | 507 kts | 54° |
| 2026-05-08 01:27 | 22.98997 | 119.25637 | 39002 ft | 507 kts | 54° |
| 2026-05-08 01:28 | 23.02669 | 119.32172 | 39003 ft | 507 kts | 54° |
| 2026-05-08 01:28 | 23.06347 | 119.38724 | 38997 ft | 508 kts | 54° |
| 2026-05-08 01:29 | 23.10028 | 119.45290 | 38998 ft | 508 kts | 54° |
| 2026-05-08 01:29 | 23.13683 | 119.51818 | 38999 ft | 508 kts | 54° |
| 2026-05-08 01:30 | 23.17356 | 119.58388 | 39001 ft | 507 kts | 54° |
| 2026-05-08 01:30 | 23.20993 | 119.64901 | 39011 ft | 506 kts | 54° |
| 2026-05-08 01:31 | 23.24662 | 119.71470 | 39003 ft | 508 kts | 54° |
| 2026-05-08 01:31 | 23.28337 | 119.78059 | 38999 ft | 509 kts | 54° |
| 2026-05-08 01:32 | 23.31990 | 119.84619 | 38997 ft | 509 kts | 54° |
| 2026-05-08 01:32 | 23.35067 | 119.90084 | 38995 ft | 507 kts | 51° |
| 2026-05-08 01:33 | 23.39625 | 119.95828 | 39007 ft | 497 kts | 40° |
| 2026-05-08 01:33 | 23.44585 | 120.01039 | 39006 ft | 497 kts | 38° |
| 2026-05-08 01:34 | 23.49656 | 120.06214 | 39008 ft | 499 kts | 38° |
| 2026-05-08 01:34 | 23.54705 | 120.11382 | 39003 ft | 499 kts | 38° |
| 2026-05-08 01:35 | 23.59765 | 120.16594 | 39009 ft | 498 kts | 38° |
| 2026-05-08 01:35 | 23.64787 | 120.21785 | 39021 ft | 498 kts | 38° |
| 2026-05-08 01:36 | 23.69829 | 120.27003 | 39009 ft | 500 kts | 38° |
| 2026-05-08 01:36 | 23.74846 | 120.32199 | 39009 ft | 500 kts | 38° |
| 2026-05-08 01:37 | 23.79902 | 120.37442 | 39007 ft | 500 kts | 38° |
| 2026-05-08 01:37 | 23.84929 | 120.42660 | 39012 ft | 500 kts | 38° |
| 2026-05-08 01:38 | 23.89977 | 120.47907 | 39014 ft | 500 kts | 38° |
| 2026-05-08 01:38 | 23.94989 | 120.53148 | 39015 ft | 501 kts | 39° |
| 2026-05-08 01:39 | 24.00016 | 120.58462 | 39023 ft | 502 kts | 39° |
| 2026-05-08 01:39 | 24.05042 | 120.63780 | 39035 ft | 501 kts | 39° |
| 2026-05-08 01:40 | 24.10033 | 120.69060 | 39050 ft | 502 kts | 39° |
| 2026-05-08 01:40 | 24.15076 | 120.74396 | 39048 ft | 504 kts | 39° |
| 2026-05-08 01:41 | 24.20131 | 120.79749 | 39049 ft | 505 kts | 39° |
| 2026-05-08 01:41 | 24.25152 | 120.85076 | 39049 ft | 505 kts | 39° |
| 2026-05-08 01:42 | 24.30198 | 120.90435 | 39046 ft | 505 kts | 39° |
| 2026-05-08 01:42 | 24.35223 | 120.95786 | 39052 ft | 506 kts | 39° |
| 2026-05-08 01:43 | 24.40276 | 121.01180 | 39056 ft | 507 kts | 40° |
| 2026-05-08 01:43 | 24.44908 | 121.07101 | 39044 ft | 511 kts | 46° |
| 2026-05-08 01:44 | 24.49336 | 121.13177 | 39053 ft | 512 kts | 46° |
| 2026-05-08 01:44 | 24.53746 | 121.19307 | 39068 ft | 511 kts | 46° |
| 2026-05-08 01:45 | 24.58178 | 121.25447 | 39061 ft | 513 kts | 46° |
| 2026-05-08 01:45 | 24.62623 | 121.31593 | 39068 ft | 513 kts | 46° |
| 2026-05-08 01:46 | 24.67046 | 121.37714 | 39066 ft | 513 kts | 46° |
| 2026-05-08 01:46 | 24.71488 | 121.43874 | 39053 ft | 513 kts | 46° |
| 2026-05-08 01:47 | 24.75927 | 121.50041 | 39053 ft | 514 kts | 46° |
| 2026-05-08 01:47 | 24.80333 | 121.56169 | 39035 ft | 513 kts | 46° |
| 2026-05-08 01:48 | 24.86978 | 121.65429 | 39022 ft | 512 kts | 46° |
| 2026-05-08 01:48 | 24.91393 | 121.71552 | 39021 ft | 511 kts | 45° |
| 2026-05-08 01:49 | 24.96045 | 121.77486 | 39031 ft | 511 kts | 43° |
| 2026-05-08 01:49 | 25.00738 | 121.83328 | 39025 ft | 512 kts | 43° |
| 2026-05-08 01:50 | 25.05428 | 121.89241 | 39033 ft | 511 kts | 44° |
| 2026-05-08 01:50 | 25.10089 | 121.95185 | 39034 ft | 511 kts | 44° |
| 2026-05-08 01:51 | 25.14737 | 122.01144 | 39047 ft | 512 kts | 44° |
| 2026-05-08 01:51 | 25.19337 | 122.07106 | 39042 ft | 514 kts | 44° |
| 2026-05-08 01:52 | 25.23968 | 122.13127 | 39037 ft | 513 kts | 44° |
| 2026-05-08 01:52 | 25.28592 | 122.19142 | 39033 ft | 513 kts | 44° |
| 2026-05-08 01:53 | 25.33188 | 122.25123 | 39034 ft | 513 kts | 44° |
| 2026-05-08 01:53 | 25.37819 | 122.31153 | 39045 ft | 514 kts | 44° |
| 2026-05-08 01:54 | 25.42463 | 122.37209 | 39033 ft | 515 kts | 44° |
| 2026-05-08 01:54 | 25.47063 | 122.43217 | 39029 ft | 514 kts | 44° |
| 2026-05-08 01:55 | 25.51699 | 122.49282 | 39044 ft | 514 kts | 45° |
| 2026-05-08 01:55 | 25.56317 | 122.55297 | 39035 ft | 515 kts | 44° |
| 2026-05-08 01:56 | 25.60964 | 122.61321 | 39037 ft | 516 kts | 44° |
| 2026-05-08 01:56 | 25.65632 | 122.67389 | 39034 ft | 516 kts | 44° |
| 2026-05-08 01:57 | 25.70285 | 122.73456 | 39037 ft | 516 kts | 44° |
| 2026-05-08 01:57 | 25.74917 | 122.79504 | 39054 ft | 516 kts | 44° |
| 2026-05-08 01:58 | 25.79582 | 122.85603 | 39041 ft | 518 kts | 44° |
| 2026-05-08 01:58 | 25.84243 | 122.91703 | 39041 ft | 518 kts | 44° |
| 2026-05-08 01:59 | 25.88890 | 122.97796 | 39042 ft | 518 kts | 44° |
| 2026-05-08 01:59 | 25.93545 | 123.03918 | 39068 ft | 518 kts | 44° |
| 2026-05-08 02:00 | 25.98219 | 123.10065 | 39050 ft | 520 kts | 44° |
| 2026-05-08 02:00 | 26.02891 | 123.16214 | 39042 ft | 520 kts | 44° |
| 2026-05-08 02:01 | 26.07545 | 123.22349 | 39046 ft | 521 kts | 44° |
| 2026-05-08 02:01 | 26.12223 | 123.28527 | 39046 ft | 521 kts | 44° |
| 2026-05-08 02:02 | 26.16898 | 123.34713 | 39051 ft | 522 kts | 44° |
| 2026-05-08 02:02 | 26.21546 | 123.40866 | 39051 ft | 522 kts | 44° |
| 2026-05-08 02:03 | 26.26232 | 123.47081 | 39049 ft | 522 kts | 44° |
| 2026-05-08 02:03 | 26.30882 | 123.53256 | 39052 ft | 522 kts | 44° |
| 2026-05-08 02:04 | 26.35562 | 123.59479 | 39068 ft | 524 kts | 44° |
| 2026-05-08 02:04 | 26.40231 | 123.65695 | 39069 ft | 524 kts | 44° |
| 2026-05-08 02:05 | 26.44919 | 123.71947 | 39053 ft | 524 kts | 44° |
| 2026-05-08 02:05 | 26.49607 | 123.78209 | 39061 ft | 524 kts | 44° |
| 2026-05-08 02:06 | 26.54261 | 123.84433 | 39059 ft | 525 kts | 44° |
| 2026-05-08 02:06 | 26.58961 | 123.90725 | 39059 ft | 526 kts | 44° |
| 2026-05-08 02:07 | 26.63624 | 123.96977 | 39054 ft | 526 kts | 44° |
| 2026-05-08 02:07 | 26.68308 | 124.03266 | 39058 ft | 526 kts | 44° |
| 2026-05-08 02:08 | 26.73008 | 124.09553 | 39058 ft | 526 kts | 44° |
| 2026-05-08 02:08 | 26.77687 | 124.15814 | 39059 ft | 526 kts | 44° |
| 2026-05-08 02:09 | 26.82375 | 124.22100 | 39061 ft | 526 kts | 44° |
| 2026-05-08 02:09 | 26.87067 | 124.28403 | 39061 ft | 526 kts | 44° |
| 2026-05-08 02:10 | 26.91731 | 124.34681 | 39065 ft | 527 kts | 44° |
| 2026-05-08 02:10 | 26.96432 | 124.41015 | 39069 ft | 528 kts | 44° |
| 2026-05-08 02:11 | 27.01134 | 124.47367 | 39064 ft | 528 kts | 44° |
| 2026-05-08 02:11 | 27.05815 | 124.53683 | 39096 ft | 528 kts | 44° |
| 2026-05-08 02:12 | 27.10512 | 124.60031 | 39079 ft | 529 kts | 43° |
| 2026-05-08 02:12 | 27.15192 | 124.66366 | 39064 ft | 529 kts | 43° |
| 2026-05-08 02:13 | 27.19902 | 124.72753 | 39069 ft | 529 kts | 43° |
| 2026-05-08 02:13 | 27.24578 | 124.79104 | 39088 ft | 530 kts | 43° |
| 2026-05-08 02:14 | 27.29288 | 124.85513 | 39066 ft | 530 kts | 44° |
| 2026-05-08 02:14 | 27.33951 | 124.91863 | 39075 ft | 529 kts | 44° |
| 2026-05-08 02:15 | 27.38646 | 124.98267 | 39074 ft | 529 kts | 44° |
| 2026-05-08 02:15 | 27.43361 | 125.04681 | 39079 ft | 529 kts | 43° |
| 2026-05-08 02:16 | 27.48058 | 125.11001 | 39073 ft | 530 kts | 43° |
| 2026-05-08 02:16 | 27.52794 | 125.17381 | 39078 ft | 530 kts | 43° |
| 2026-05-08 02:17 | 27.57530 | 125.23784 | 39080 ft | 530 kts | 43° |
| 2026-05-08 02:17 | 27.62235 | 125.30162 | 39080 ft | 531 kts | 43° |
| 2026-05-08 02:18 | 27.66958 | 125.36571 | 39079 ft | 531 kts | 43° |
| 2026-05-08 02:18 | 27.71685 | 125.42997 | 39077 ft | 531 kts | 43° |
| 2026-05-08 02:19 | 27.75608 | 125.48337 | 39079 ft | 532 kts | 43° |
| 2026-05-08 02:19 | 27.80311 | 125.54748 | 39084 ft | 532 kts | 43° |
| 2026-05-08 02:20 | 27.85046 | 125.61210 | 39077 ft | 532 kts | 44° |
| 2026-05-08 02:20 | 27.89745 | 125.67634 | 39077 ft | 532 kts | 44° |
| 2026-05-08 02:21 | 27.94467 | 125.74099 | 39109 ft | 532 kts | 43° |
| 2026-05-08 02:21 | 27.99188 | 125.80571 | 39078 ft | 533 kts | 44° |
| 2026-05-08 02:22 | 28.03884 | 125.87019 | 39081 ft | 533 kts | 44° |
| 2026-05-08 02:22 | 28.08623 | 125.93538 | 39080 ft | 533 kts | 44° |
| 2026-05-08 02:23 | 28.13308 | 125.99994 | 39078 ft | 534 kts | 44° |
| 2026-05-08 02:23 | 28.18039 | 126.06520 | 39082 ft | 535 kts | 44° |
| 2026-05-08 02:24 | 28.22743 | 126.13019 | 39089 ft | 535 kts | 44° |
| 2026-05-08 02:24 | 28.27470 | 126.19561 | 39086 ft | 535 kts | 44° |
| 2026-05-08 02:25 | 28.32172 | 126.26076 | 39076 ft | 537 kts | 44° |
| 2026-05-08 02:25 | 28.36914 | 126.32658 | 39083 ft | 537 kts | 44° |
| 2026-05-08 02:26 | 28.41644 | 126.39236 | 39085 ft | 537 kts | 44° |
| 2026-05-08 02:26 | 28.46342 | 126.45778 | 39080 ft | 537 kts | 44° |
| 2026-05-08 02:27 | 28.51063 | 126.52362 | 39081 ft | 536 kts | 44° |
| 2026-05-08 02:27 | 28.55756 | 126.58918 | 39085 ft | 536 kts | 44° |
| 2026-05-08 02:28 | 28.60485 | 126.65534 | 39082 ft | 536 kts | 44° |
| 2026-05-08 02:28 | 28.65172 | 126.72100 | 39093 ft | 538 kts | 44° |
| 2026-05-08 02:29 | 28.69909 | 126.78746 | 39090 ft | 539 kts | 44° |
| 2026-05-08 02:29 | 28.74599 | 126.85342 | 39087 ft | 538 kts | 44° |
| 2026-05-08 02:30 | 28.79313 | 126.91979 | 39097 ft | 538 kts | 44° |
| 2026-05-08 02:30 | 28.84036 | 126.98638 | 39088 ft | 540 kts | 44° |
| 2026-05-08 02:31 | 28.88736 | 127.05275 | 39086 ft | 539 kts | 45° |
| 2026-05-08 02:31 | 28.93450 | 127.11946 | 39086 ft | 539 kts | 45° |
| 2026-05-08 02:32 | 28.98147 | 127.18598 | 39083 ft | 541 kts | 45° |
| 2026-05-08 02:32 | 29.02888 | 127.25325 | 39080 ft | 542 kts | 45° |
| 2026-05-08 02:33 | 29.07598 | 127.32023 | 39086 ft | 542 kts | 45° |
| 2026-05-08 02:33 | 29.12332 | 127.38766 | 39081 ft | 543 kts | 45° |
| 2026-05-08 02:34 | 29.17050 | 127.45493 | 39084 ft | 544 kts | 45° |
| 2026-05-08 02:34 | 29.21793 | 127.52268 | 39090 ft | 543 kts | 45° |
| 2026-05-08 02:35 | 29.26489 | 127.58988 | 39092 ft | 543 kts | 45° |
| 2026-05-08 02:35 | 29.31223 | 127.65772 | 39082 ft | 544 kts | 45° |
| 2026-05-08 02:36 | 29.35960 | 127.72572 | 39063 ft | 544 kts | 45° |
| 2026-05-08 02:36 | 29.40650 | 127.79315 | 39079 ft | 543 kts | 45° |
| 2026-05-08 02:37 | 29.45369 | 127.86113 | 39079 ft | 544 kts | 46° |
| 2026-05-08 02:37 | 29.50104 | 127.92944 | 39077 ft | 545 kts | 46° |
| 2026-05-08 02:38 | 29.54791 | 127.99719 | 39073 ft | 545 kts | 46° |
| 2026-05-08 02:38 | 29.59518 | 128.06553 | 39072 ft | 545 kts | 46° |
| 2026-05-08 02:39 | 29.64238 | 128.13384 | 39071 ft | 546 kts | 46° |
| 2026-05-08 02:39 | 29.68935 | 128.20198 | 39072 ft | 546 kts | 46° |
| 2026-05-08 02:40 | 29.73642 | 128.27039 | 39074 ft | 546 kts | 46° |
| 2026-05-08 02:40 | 29.78374 | 128.33926 | 39069 ft | 547 kts | 46° |
| 2026-05-08 02:41 | 29.83098 | 128.40815 | 39067 ft | 548 kts | 46° |
| 2026-05-08 02:41 | 29.87816 | 128.47706 | 39083 ft | 548 kts | 46° |
| 2026-05-08 02:42 | 29.92541 | 128.54620 | 39065 ft | 548 kts | 46° |
| 2026-05-08 02:42 | 29.97232 | 128.61494 | 39064 ft | 548 kts | 46° |
| 2026-05-08 02:43 | 30.01959 | 128.68435 | 39056 ft | 549 kts | 46° |
| 2026-05-08 02:43 | 30.06648 | 128.75330 | 39059 ft | 549 kts | 46° |
| 2026-05-08 02:44 | 30.11367 | 128.82283 | 39062 ft | 549 kts | 46° |
| 2026-05-08 02:44 | 30.16087 | 128.89248 | 39047 ft | 549 kts | 46° |
| 2026-05-08 02:45 | 30.20776 | 128.96180 | 39056 ft | 550 kts | 46° |
| 2026-05-08 02:45 | 30.25492 | 129.03167 | 39056 ft | 550 kts | 46° |
| 2026-05-08 02:46 | 30.30173 | 129.10112 | 39056 ft | 550 kts | 46° |
| 2026-05-08 02:46 | 30.34893 | 129.17125 | 39059 ft | 550 kts | 47° |
| 2026-05-08 02:47 | 30.39583 | 129.24107 | 39054 ft | 551 kts | 47° |
| 2026-05-08 02:47 | 30.44287 | 129.31122 | 39052 ft | 551 kts | 47° |
| 2026-05-08 02:48 | 30.48960 | 129.38104 | 39058 ft | 551 kts | 47° |
| 2026-05-08 02:48 | 30.53649 | 129.45122 | 39048 ft | 551 kts | 47° |
| 2026-05-08 02:49 | 30.58348 | 129.52169 | 39051 ft | 551 kts | 47° |
| 2026-05-08 02:49 | 30.63043 | 129.59219 | 39037 ft | 552 kts | 47° |
| 2026-05-08 02:50 | 30.67720 | 129.66257 | 39044 ft | 552 kts | 47° |
| 2026-05-08 02:50 | 30.72414 | 129.73334 | 39045 ft | 552 kts | 47° |
| 2026-05-08 02:51 | 30.77110 | 129.80425 | 39043 ft | 552 kts | 47° |
| 2026-05-08 02:51 | 30.81775 | 129.87482 | 39037 ft | 552 kts | 47° |
| 2026-05-08 02:52 | 30.86202 | 129.94843 | 39034 ft | 556 kts | 53° |
| 2026-05-08 02:52 | 30.90329 | 130.02491 | 39036 ft | 558 kts | 54° |
| 2026-05-08 02:53 | 30.94382 | 130.10152 | 39034 ft | 558 kts | 54° |
| 2026-05-08 02:53 | 30.98458 | 130.17873 | 39032 ft | 558 kts | 54° |
| 2026-05-08 02:54 | 31.02534 | 130.25587 | 39011 ft | 559 kts | 54° |
| 2026-05-08 02:54 | 31.06598 | 130.33281 | 39018 ft | 559 kts | 54° |
| 2026-05-08 02:55 | 31.12715 | 130.44892 | 39047 ft | 559 kts | 54° |
| 2026-05-08 02:56 | 31.16764 | 130.52596 | 39015 ft | 561 kts | 54° |
| 2026-05-08 02:56 | 31.20842 | 130.60372 | 39011 ft | 560 kts | 54° |
| 2026-05-08 02:57 | 31.24914 | 130.68159 | 39021 ft | 561 kts | 54° |
| 2026-05-08 02:57 | 31.28961 | 130.75906 | 39001 ft | 562 kts | 54° |
| 2026-05-08 02:58 | 31.33042 | 130.83730 | 38998 ft | 562 kts | 55° |
| 2026-05-08 02:58 | 31.37121 | 130.91571 | 38982 ft | 562 kts | 55° |
| 2026-05-08 02:59 | 31.41161 | 130.99354 | 38993 ft | 562 kts | 55° |
| 2026-05-08 02:59 | 31.45221 | 131.07192 | 38988 ft | 562 kts | 55° |
| 2026-05-08 03:00 | 31.49278 | 131.15038 | 39009 ft | 563 kts | 56° |
| 2026-05-08 03:00 | 31.53320 | 131.22867 | 38981 ft | 565 kts | 55° |
| 2026-05-08 03:01 | 31.57392 | 131.30777 | 38972 ft | 565 kts | 55° |
| 2026-05-08 03:01 | 31.61440 | 131.38657 | 38970 ft | 565 kts | 55° |
| 2026-05-08 03:02 | 31.65499 | 131.46580 | 38937 ft | 566 kts | 55° |
| 2026-05-08 03:02 | 31.69534 | 131.54475 | 38930 ft | 566 kts | 55° |
| 2026-05-08 03:03 | 31.73602 | 131.62449 | 38937 ft | 567 kts | 55° |
| 2026-05-08 03:03 | 31.77632 | 131.70366 | 38931 ft | 567 kts | 55° |
| 2026-05-08 03:04 | 31.81680 | 131.78333 | 38915 ft | 567 kts | 55° |
| 2026-05-08 03:04 | 31.85733 | 131.86327 | 38954 ft | 567 kts | 55° |
| 2026-05-08 03:05 | 31.89784 | 131.94335 | 38935 ft | 569 kts | 56° |
| 2026-05-08 03:05 | 31.93806 | 132.02305 | 38925 ft | 569 kts | 55° |
| 2026-05-08 03:06 | 31.97850 | 132.10333 | 38936 ft | 569 kts | 56° |
| 2026-05-08 03:06 | 32.01872 | 132.18332 | 38930 ft | 570 kts | 56° |
| 2026-05-08 03:07 | 32.05906 | 132.26378 | 38926 ft | 569 kts | 55° |
| 2026-05-08 03:07 | 32.09938 | 132.34429 | 38926 ft | 570 kts | 56° |
| 2026-05-08 03:07 | 32.12168 | 132.38266 | 38928 ft | 564 kts | 45° |
| 2026-05-08 03:08 | 32.14811 | 132.41568 | 38916 ft | 554 kts | 34° |
| 2026-05-08 03:08 | 32.20664 | 132.47432 | 38939 ft | 550 kts | 32° |
| 2026-05-08 03:09 | 32.26660 | 132.53065 | 38921 ft | 551 kts | 31° |
| 2026-05-08 03:09 | 32.31666 | 132.57747 | 38922 ft | 551 kts | 31° |
| 2026-05-08 03:10 | 32.37674 | 132.63416 | 38915 ft | 553 kts | 32° |
| 2026-05-08 03:10 | 32.43682 | 132.69124 | 38914 ft | 553 kts | 32° |
| 2026-05-08 03:11 | 32.49642 | 132.74806 | 38937 ft | 553 kts | 32° |
| 2026-05-08 03:11 | 32.55669 | 132.80556 | 38909 ft | 556 kts | 32° |
| 2026-05-08 03:12 | 32.61667 | 132.86291 | 38912 ft | 556 kts | 32° |
| 2026-05-08 03:12 | 32.67700 | 132.92070 | 38910 ft | 556 kts | 32° |
| 2026-05-08 03:13 | 32.73710 | 132.97913 | 38900 ft | 560 kts | 36° |
| 2026-05-08 03:13 | 32.76409 | 133.01304 | 38940 ft | 568 kts | 47° |
| 2026-05-08 03:13 | 32.78795 | 133.04969 | 38900 ft | 569 kts | 49° |
| 2026-05-08 03:14 | 32.83448 | 133.12658 | 38900 ft | 572 kts | 51° |
| 2026-05-08 03:14 | 32.87983 | 133.20403 | 38928 ft | 572 kts | 51° |
| 2026-05-08 03:15 | 32.92549 | 133.28186 | 38896 ft | 573 kts | 51° |
| 2026-05-08 03:15 | 32.97138 | 133.35971 | 38894 ft | 573 kts | 51° |
| 2026-05-08 03:16 | 33.01695 | 133.43698 | 38874 ft | 573 kts | 51° |
| 2026-05-08 03:16 | 33.06275 | 133.51487 | 38887 ft | 573 kts | 51° |
| 2026-05-08 03:17 | 33.10856 | 133.59284 | 38905 ft | 573 kts | 51° |
| 2026-05-08 03:17 | 33.15433 | 133.67087 | 38876 ft | 574 kts | 51° |
| 2026-05-08 03:18 | 33.19994 | 133.74887 | 38880 ft | 573 kts | 51° |
| 2026-05-08 03:18 | 33.24529 | 133.82659 | 38879 ft | 574 kts | 51° |
| 2026-05-08 03:19 | 33.29100 | 133.90508 | 38876 ft | 573 kts | 51° |
| 2026-05-08 03:19 | 33.33632 | 133.98303 | 38900 ft | 574 kts | 51° |
| 2026-05-08 03:20 | 33.38198 | 134.06179 | 38864 ft | 575 kts | 51° |
| 2026-05-08 03:20 | 33.42734 | 134.13988 | 38871 ft | 574 kts | 51° |
| 2026-05-08 03:20 | 33.44995 | 134.17908 | 38586 ft | 567 kts | 51° |
| 2026-05-08 03:21 | 33.47235 | 134.21818 | 37583 ft | 570 kts | 52° |
| 2026-05-08 03:21 | 33.49500 | 134.25770 | 36457 ft | 577 kts | 52° |
| 2026-05-08 03:21 | 33.51786 | 134.29739 | 35649 ft | 578 kts | 52° |
| 2026-05-08 03:21 | 33.53758 | 134.33159 | 34899 ft | 580 kts | 52° |
| 2026-05-08 03:22 | 33.55996 | 134.37045 | 34024 ft | 584 kts | 53° |
| 2026-05-08 03:22 | 33.58405 | 134.40989 | 32963 ft | 585 kts | 45° |
| 2026-05-08 03:22 | 33.61355 | 134.44292 | 31976 ft | 575 kts | 30° |
| 2026-05-08 03:22 | 33.64774 | 134.46673 | 31025 ft | 562 kts | 16° |
| 2026-05-08 03:23 | 33.68457 | 134.48032 | 30052 ft | 547 kts | 1° |
| 2026-05-08 03:23 | 33.72205 | 134.48310 | 28885 ft | 529 kts | 347° |
| 2026-05-08 03:23 | 33.75756 | 134.47685 | 27949 ft | 517 kts | 341° |
| 2026-05-08 03:23 | 33.79311 | 134.47024 | 27147 ft | 517 kts | 344° |
| 2026-05-08 03:24 | 33.82891 | 134.46598 | 26455 ft | 515 kts | 347° |
| 2026-05-08 03:24 | 33.86466 | 134.46347 | 25783 ft | 512 kts | 349° |
| 2026-05-08 03:24 | 33.90016 | 134.46195 | 25084 ft | 509 kts | 350° |
| 2026-05-08 03:24 | 33.93556 | 134.46101 | 24401 ft | 505 kts | 351° |
| 2026-05-08 03:25 | 33.97006 | 134.46042 | 23797 ft | 500 kts | 351° |
| 2026-05-08 03:25 | 34.00470 | 134.46001 | 23192 ft | 494 kts | 351° |
| 2026-05-08 03:25 | 34.03906 | 134.45968 | 22429 ft | 490 kts | 351° |
| 2026-05-08 03:25 | 34.07309 | 134.45939 | 21616 ft | 487 kts | 351° |
| 2026-05-08 03:26 | 34.10687 | 134.45915 | 20854 ft | 483 kts | 352° |
| 2026-05-08 03:26 | 34.14041 | 134.45894 | 20123 ft | 479 kts | 352° |
| 2026-05-08 03:26 | 34.17372 | 134.45872 | 19397 ft | 475 kts | 352° |
| 2026-05-08 03:26 | 34.20622 | 134.45851 | 18719 ft | 471 kts | 352° |
| 2026-05-08 03:27 | 34.23909 | 134.45893 | 18030 ft | 472 kts | 356° |
| 2026-05-08 03:27 | 34.27161 | 134.46722 | 17303 ft | 482 kts | 14° |
| 2026-05-08 03:27 | 34.30100 | 134.48571 | 16664 ft | 485 kts | 31° |
| 2026-05-08 03:27 | 34.32635 | 134.51271 | 16014 ft | 483 kts | 42° |
| 2026-05-08 03:28 | 34.34985 | 134.54142 | 15383 ft | 476 kts | 42° |
| 2026-05-08 03:28 | 34.37337 | 134.56929 | 14772 ft | 469 kts | 41° |
| 2026-05-08 03:28 | 34.39695 | 134.59628 | 14169 ft | 461 kts | 40° |
| 2026-05-08 03:28 | 34.41999 | 134.62210 | 13666 ft | 451 kts | 40° |
| 2026-05-08 03:29 | 34.44304 | 134.64767 | 13381 ft | 435 kts | 39° |
| 2026-05-08 03:29 | 34.46476 | 134.67161 | 13130 ft | 420 kts | 39° |
| 2026-05-08 03:29 | 34.48609 | 134.69502 | 12878 ft | 405 kts | 39° |
| 2026-05-08 03:29 | 34.50664 | 134.71754 | 12649 ft | 390 kts | 39° |
| 2026-05-08 03:30 | 34.54562 | 134.76021 | 12244 ft | 364 kts | 39° |
| 2026-05-08 03:30 | 34.58195 | 134.79996 | 11648 ft | 347 kts | 39° |
| 2026-05-08 03:31 | 34.61266 | 134.84405 | 10775 ft | 344 kts | 71° |
| 2026-05-08 03:31 | 34.61489 | 134.90059 | 9887 ft | 333 kts | 97° |
| 2026-05-08 03:32 | 34.61354 | 134.92864 | 9431 ft | 332 kts | 96° |
| 2026-05-08 03:32 | 34.61248 | 134.95661 | 8976 ft | 329 kts | 95° |
| 2026-05-08 03:32 | 34.61166 | 134.98391 | 8546 ft | 326 kts | 95° |
| 2026-05-08 03:32 | 34.61097 | 135.01131 | 8093 ft | 323 kts | 95° |
| 2026-05-08 03:33 | 34.61034 | 135.03852 | 7642 ft | 321 kts | 95° |
| 2026-05-08 03:33 | 34.60970 | 135.06566 | 7186 ft | 319 kts | 95° |
| 2026-05-08 03:33 | 34.60908 | 135.09261 | 6716 ft | 318 kts | 95° |
| 2026-05-08 03:33 | 34.60847 | 135.11937 | 6300 ft | 315 kts | 94° |
| 2026-05-08 03:34 | 34.60789 | 135.14556 | 5861 ft | 313 kts | 94° |
| 2026-05-08 03:34 | 34.60732 | 135.17154 | 5616 ft | 301 kts | 94° |
| 2026-05-08 03:34 | 34.60678 | 135.19644 | 5529 ft | 288 kts | 94° |
| 2026-05-08 03:34 | 34.60627 | 135.22036 | 5490 ft | 277 kts | 94° |
| 2026-05-08 03:35 | 34.60581 | 135.24330 | 5421 ft | 265 kts | 94° |
| 2026-05-08 03:35 | 34.60540 | 135.26519 | 5294 ft | 254 kts | 94° |
| 2026-05-08 03:35 | 34.60500 | 135.28597 | 5100 ft | 246 kts | 94° |
| 2026-05-08 03:35 | 34.60459 | 135.30672 | 4764 ft | 245 kts | 94° |
| 2026-05-08 03:36 | 34.60417 | 135.32739 | 4410 ft | 244 kts | 94° |
| 2026-05-08 03:36 | 34.60372 | 135.34808 | 4088 ft | 243 kts | 94° |
| 2026-05-08 03:36 | 34.59964 | 135.36763 | 3692 ft | 236 kts | 128° |
| 2026-05-08 03:36 | 34.58789 | 135.37923 | 3424 ft | 212 kts | 171° |
| 2026-05-08 03:37 | 34.57381 | 135.38017 | 3371 ft | 201 kts | 193° |
| 2026-05-08 03:37 | 34.56050 | 135.37718 | 3199 ft | 187 kts | 206° |
| 2026-05-08 03:37 | 34.54856 | 135.37157 | 2881 ft | 183 kts | 211° |
| 2026-05-08 03:37 | 34.53666 | 135.36542 | 2717 ft | 193 kts | 211° |
| 2026-05-08 03:38 | 34.52439 | 135.35934 | 2598 ft | 185 kts | 210° |
| 2026-05-08 03:38 | 34.51243 | 135.35359 | 2236 ft | 186 kts | 208° |
| 2026-05-08 03:38 | 34.50027 | 135.34730 | 1903 ft | 189 kts | 214° |
| 2026-05-08 03:38 | 34.48967 | 135.33873 | 1661 ft | 176 kts | 225° |
| 2026-05-08 03:39 | 34.48279 | 135.32756 | 1427 ft | 158 kts | 242° |
| 2026-05-08 03:39 | 34.47669 | 135.31711 | 1230 ft | 145 kts | 236° |
| 2026-05-08 03:39 | 34.47041 | 135.30788 | 1043 ft | 138 kts | 234° |
| 2026-05-08 03:39 | 34.46445 | 135.29930 | 877 ft | 134 kts | 234° |
| 2026-05-08 03:40 | 34.45849 | 135.29063 | 698 ft | 133 kts | 233° |
| 2026-05-08 03:40 | 34.45268 | 135.28190 | 531 ft | 135 kts | 233° |
| 2026-05-08 03:40 | 34.44670 | 135.27292 | 365 ft | 137 kts | 233° |
| 2026-05-08 03:40 | 34.44068 | 135.26399 | 200 ft | 137 kts | 231° |
| 2026-05-08 03:41 | 34.43460 | 135.25499 | 30 ft | 136 kts | 234° |
| 2026-05-08 03:41 | 34.42950 | 135.24731 | 20 ft | 91 kts | 230° |
| 2026-05-08 03:41 | 34.42657 | 135.24298 | 23 ft | 53 kts | 231° |
| 2026-05-08 03:41 | 34.42467 | 135.23939 | 22 ft | 49 kts | 251° |
| 2026-05-08 03:42 | 34.42472 | 135.23696 | 30 ft | 6 kts | 333° |
| 2026-05-08 03:42 | 34.42510 | 135.23720 | 29 ft | 10 kts | 56° |
| 2026-05-08 03:42 | 34.42570 | 135.23822 | 29 ft | 17 kts | 51° |
| 2026-05-08 03:42 | 34.42652 | 135.23943 | 29 ft | 20 kts | 51° |
| 2026-05-08 03:43 | 34.42746 | 135.24078 | 29 ft | 14 kts | 36° |
| 2026-05-08 03:43 | 34.42806 | 135.24058 | 28 ft | 11 kts | 326° |
| 2026-05-08 03:43 | 34.42877 | 135.24010 | 30 ft | 12 kts | 354° |
| 2026-05-08 03:43 | 34.42949 | 135.24070 | 30 ft | 11 kts | 52° |
| 2026-05-08 03:44 | 34.42965 | 135.24090 | 28 ft | 8 kts | 38° |
| 2026-05-08 03:44 | 34.43020 | 135.24067 | 30 ft | 10 kts | 324° |
| 2026-05-08 03:44 | 34.43038 | 135.24050 | 28 ft | 0 kts | 321° |